createdAt,value
2022-12-15T00:00:23.566Z,99699.74
2022-12-15T00:03:30.579Z,99703.27
2022-12-15T00:06:19.051Z,99706.75
2022-12-15T00:09:09.737Z,99707.80
2022-12-15T00:11:59.094Z,99707.98
2022-12-15T00:14:45.773Z,99704.92
2022-12-15T00:17:32.324Z,99703.88
2022-12-15T00:20:18.662Z,99705.80
2022-12-15T00:23:05.408Z,99708.48
2022-12-15T00:25:51.925Z,99710.87
2022-12-15T00:28:38.427Z,99716.45
2022-12-15T00:31:25.083Z,99712.16
2022-12-15T00:34:11.304Z,99714.76
2022-12-15T00:36:58.022Z,99714.96
2022-12-15T00:39:25.938Z,99717.92
2022-12-15T00:41:53.784Z,99719.64
2022-12-15T00:44:23.283Z,99721.66
2022-12-15T00:46:57.068Z,99721.81
2022-12-15T00:49:46.545Z,99722.20
2022-12-15T00:52:34.666Z,99730.14
2022-12-15T00:55:22.289Z,99732.74
2022-12-15T00:58:08.678Z,99730.86
2022-12-15T01:00:55.251Z,99730.77
2022-12-15T01:03:42.897Z,99734.88
2022-12-15T01:06:32.949Z,99738.40
2022-12-15T01:09:19.339Z,99742.73
2022-12-15T01:12:06.252Z,99742.41
2022-12-15T01:14:53.774Z,99739.92
2022-12-15T01:17:40.812Z,99741.53
2022-12-15T01:20:18.751Z,99741.61
2022-12-15T01:22:53.321Z,99742.31
2022-12-15T01:25:25.442Z,99741.64
2022-12-15T01:27:53.750Z,99739.09
2022-12-15T01:30:24.485Z,99733.69
2022-12-15T01:32:53.098Z,99736.57
2022-12-15T01:35:21.478Z,99737.19
2022-12-15T01:37:50.141Z,99740.01
2022-12-15T01:40:39.266Z,99743.27
2022-12-15T01:43:20.352Z,99745.93
2022-12-15T01:46:00.498Z,99748.50
2022-12-15T01:48:30.963Z,99750.08
2022-12-15T01:51:04.524Z,99747.56
2022-12-15T01:53:37.907Z,99748.02
2022-12-15T01:56:08.621Z,99753.37
2022-12-15T01:58:39.220Z,99754.00
2022-12-15T02:01:07.627Z,99753.66
2022-12-15T02:03:36.414Z,99754.14
2022-12-15T02:06:04.988Z,99759.28
2022-12-15T02:08:32.969Z,99761.63
2022-12-15T02:11:16.692Z,99762.10
2022-12-15T02:14:02.604Z,99766.34
2022-12-15T02:17:01.852Z,99771.02
2022-12-15T02:19:54.510Z,99771.70
2022-12-15T02:22:41.126Z,99770.96
2022-12-15T02:25:28.133Z,99773.73
2022-12-15T02:28:06.531Z,99773.64
2022-12-15T02:30:40.134Z,99775.17
2022-12-15T02:33:14.797Z,99783.77
2022-12-15T02:35:48.211Z,99788.17
2022-12-15T02:38:16.245Z,99792.69
2022-12-15T02:40:44.178Z,99793.81
2022-12-15T02:43:12.251Z,99797.35
2022-12-15T02:45:50.527Z,99797.16
2022-12-15T02:48:46.875Z,99794.70
2022-12-15T02:51:21.028Z,99791.94
2022-12-15T02:54:23.515Z,99793.67
2022-12-15T02:57:07.569Z,99802.17
2022-12-15T02:59:44.585Z,99802.69
2022-12-15T03:02:14.371Z,99798.51
2022-12-15T03:04:43.493Z,99804.09
2022-12-15T03:07:11.510Z,99809.56
2022-12-15T03:09:39.384Z,99818.68
2022-12-15T03:12:07.587Z,99823.05
2022-12-15T03:14:35.662Z,99815.92
2022-12-15T03:17:07.162Z,99815.31
2022-12-15T03:19:35.139Z,99812.85
2022-12-15T03:22:04.304Z,99816.59
2022-12-15T03:24:32.238Z,99823.96
2022-12-15T03:27:00.255Z,99821.55
2022-12-15T03:29:28.161Z,99820.39
2022-12-15T03:31:56.207Z,99830.02
2022-12-15T03:34:24.182Z,99833.71
2022-12-15T03:36:52.158Z,99836.12
2022-12-15T03:39:20.119Z,99833.55
2022-12-15T03:41:48.148Z,99834.98
2022-12-15T03:44:15.984Z,99838.68
2022-12-15T03:46:43.936Z,99844.01
2022-12-15T03:49:11.887Z,99850.14
2022-12-15T03:51:39.824Z,99855.95
2022-12-15T03:54:07.727Z,99855.59
2022-12-15T03:56:35.644Z,99853.38
2022-12-15T03:59:03.516Z,99857.61
2022-12-15T04:01:33.922Z,99864.39
2022-12-15T04:04:03.319Z,99865.58
2022-12-15T04:06:31.499Z,99872.55
2022-12-15T04:08:59.476Z,99873.16
2022-12-15T04:11:27.402Z,99878.56
2022-12-15T04:13:55.243Z,99886.86
2022-12-15T04:16:23.251Z,99889.52
2022-12-15T04:19:11.252Z,99886.34
2022-12-15T04:21:39.220Z,99891.65
2022-12-15T04:24:26.006Z,99895.27
2022-12-15T04:27:12.548Z,99899.52
2022-12-15T04:29:59.259Z,99898.77
2022-12-15T04:32:49.708Z,99907.80
2022-12-15T04:35:37.199Z,99918.67
2022-12-15T04:38:23.817Z,99923.23
2022-12-15T04:41:10.551Z,99925.12
2022-12-15T04:43:57.906Z,99927.90
2022-12-15T04:46:44.476Z,99928.22
2022-12-15T04:49:31.145Z,99927.77
2022-12-15T04:52:17.721Z,99932.34
2022-12-15T04:55:04.470Z,99935.36
2022-12-15T04:57:51.145Z,99940.82
2022-12-15T05:00:37.617Z,99946.86
2022-12-15T05:03:25.648Z,99946.86
2022-12-15T05:06:12.370Z,99951.52
2022-12-15T05:08:59.020Z,99954.30
2022-12-15T05:11:45.605Z,99960.77
2022-12-15T05:14:32.234Z,99961.83
2022-12-15T05:17:18.867Z,99967.27
2022-12-15T05:20:05.492Z,99966.50
2022-12-15T05:22:52.954Z,99966.33
2022-12-15T05:25:39.272Z,99969.83
2022-12-15T05:28:26.304Z,99972.61
2022-12-15T05:31:13.122Z,99978.86
2022-12-15T05:33:41.348Z,99984.02
2022-12-15T05:36:09.545Z,99989.20
2022-12-15T05:38:37.404Z,99995.67
2022-12-15T05:41:05.361Z,99999.16
2022-12-15T05:43:33.800Z,100001.67
2022-12-15T05:46:06.012Z,100009.36
2022-12-15T05:48:33.971Z,100015.87
2022-12-15T05:51:09.772Z,100018.85
2022-12-15T05:53:39.596Z,100028.63
2022-12-15T05:56:10.846Z,100029.96
2022-12-15T05:58:45.093Z,100035.54
2022-12-15T06:01:18.293Z,100038.11
2022-12-15T06:03:46.397Z,100043.04
2022-12-15T06:06:14.385Z,100046.34
2022-12-15T06:08:43.353Z,100050.66
2022-12-15T06:11:13.524Z,100055.55
2022-12-15T06:13:41.958Z,100061.92
2022-12-15T06:16:11.266Z,100063.35
2022-12-15T06:18:42.164Z,100061.27
2022-12-15T06:21:16.120Z,100064.27
2022-12-15T06:23:44.723Z,100069.41
2022-12-15T06:26:17.433Z,100074.31
2022-12-15T06:28:46.638Z,100070.88
2022-12-15T06:31:15.823Z,100077.17
2022-12-15T06:33:44.241Z,100082.39
2022-12-15T06:36:14.183Z,100086.89
2022-12-15T06:38:43.670Z,100089.61
2022-12-15T06:41:14.233Z,100090.48
2022-12-15T06:43:42.986Z,100093.95
2022-12-15T06:46:10.986Z,100100.72
2022-12-15T06:48:39.757Z,100107.85
2022-12-15T06:51:15.008Z,100110.84
2022-12-15T06:53:48.806Z,100112.14
2022-12-15T06:56:33.736Z,100109.61
2022-12-15T06:59:04.622Z,100112.52
2022-12-15T07:01:33.175Z,100115.15
2022-12-15T07:04:03.200Z,100113.65
2022-12-15T07:06:37.438Z,100115.34
2022-12-15T07:09:08.452Z,100121.04
2022-12-15T07:11:36.544Z,100122.14
2022-12-15T07:14:05.017Z,100124.06
2022-12-15T07:16:33.116Z,100127.38
2022-12-15T07:19:01.203Z,100131.75
2022-12-15T07:21:29.316Z,100136.27
2022-12-15T07:23:58.256Z,100133.48
2022-12-15T07:26:27.177Z,100137.44
2022-12-15T07:28:56.272Z,100140.02
2022-12-15T07:31:24.546Z,100147.26
2022-12-15T07:33:54.451Z,100153.14
2022-12-15T07:36:22.773Z,100154.88
2022-12-15T07:38:51.696Z,100158.95
2022-12-15T07:41:20.872Z,100162.17
2022-12-15T07:43:49.197Z,100162.77
2022-12-15T07:46:18.418Z,100161.90
2022-12-15T07:48:50.433Z,100161.85
2022-12-15T07:51:22.246Z,100163.45
2022-12-15T07:53:50.860Z,100172.95
2022-12-15T07:56:19.830Z,100179.90
2022-12-15T07:58:48.393Z,100185.17
2022-12-15T08:01:17.040Z,100186.86
2022-12-15T08:03:45.469Z,100184.51
2022-12-15T08:06:15.146Z,100188.13
2022-12-15T08:08:50.848Z,100189.27
2022-12-15T08:11:21.044Z,100185.58
2022-12-15T08:14:07.895Z,100189.66
2022-12-15T08:16:37.561Z,100194.80
2022-12-15T08:19:06.564Z,100199.75
2022-12-15T08:21:35.072Z,100205.04
2022-12-15T08:24:03.186Z,100202.80
2022-12-15T08:26:31.809Z,100207.48
2022-12-15T08:29:40.726Z,100208.80
2022-12-15T08:31:56.042Z,100212.85
2022-12-15T08:34:24.109Z,100214.54
2022-12-15T08:36:52.366Z,100215.69
2022-12-15T08:39:20.637Z,100214.63
2022-12-15T08:41:48.636Z,100221.55
2022-12-15T08:44:17.380Z,100230.36
2022-12-15T08:46:45.334Z,100236.85
2022-12-15T08:49:17.952Z,100240.52
2022-12-15T08:51:50.704Z,100245.81
2022-12-15T08:54:19.906Z,100249.38
2022-12-15T08:56:48.699Z,100247.02
2022-12-15T08:59:16.829Z,100245.15
2022-12-15T09:01:44.918Z,100246.70
2022-12-15T09:04:13.156Z,100245.60
2022-12-15T09:06:41.603Z,100253.45
2022-12-15T09:09:13.507Z,100249.00
2022-12-15T09:11:41.388Z,100250.79
2022-12-15T09:14:09.414Z,100246.08
2022-12-15T09:16:37.723Z,100245.66
2022-12-15T09:19:07.288Z,100248.98
2022-12-15T09:21:35.408Z,100250.95
2022-12-15T09:24:04.445Z,100255.27
2022-12-15T09:26:34.549Z,100259.43
2022-12-15T09:29:03.128Z,100259.79
2022-12-15T09:31:33.580Z,100257.73
2022-12-15T09:34:01.986Z,100256.15
2022-12-15T09:36:32.835Z,100256.84
2022-12-15T09:39:02.713Z,100255.76
2022-12-15T09:41:33.418Z,100257.19
2022-12-15T09:44:14.630Z,100262.69
2022-12-15T09:46:55.530Z,100261.33
2022-12-15T09:49:53.262Z,100261.39
2022-12-15T09:52:35.761Z,100258.66
2022-12-15T09:55:18.018Z,100256.27
2022-12-15T09:58:16.625Z,100263.35
2022-12-15T10:01:12.675Z,100266.60
2022-12-15T10:04:03.477Z,100268.77
2022-12-15T10:06:45.505Z,100267.46
2022-12-15T10:09:27.967Z,100272.48
2022-12-15T10:11:59.018Z,100279.77
2022-12-15T10:14:37.763Z,100277.83
2022-12-15T10:17:26.225Z,100279.86
2022-12-15T10:20:07.448Z,100280.67
2022-12-15T10:22:37.446Z,100288.36
2022-12-15T10:25:27.496Z,100287.61
2022-12-15T10:28:24.625Z,100286.19
2022-12-15T10:31:08.029Z,100291.39
2022-12-15T10:33:39.856Z,100294.55
2022-12-15T10:36:13.272Z,100292.32
2022-12-15T10:38:45.527Z,100286.04
2022-12-15T10:41:16.551Z,100283.73
2022-12-15T10:43:50.307Z,100287.30
2022-12-15T10:46:26.664Z,100279.20
2022-12-15T10:49:00.633Z,100277.09
2022-12-15T10:51:50.894Z,100286.52
2022-12-15T10:54:18.939Z,100284.05
2022-12-15T10:56:54.558Z,100287.24
2022-12-15T10:59:35.712Z,100289.50
2022-12-15T11:02:24.266Z,100288.33
2022-12-15T11:04:58.308Z,100287.64
2022-12-15T11:07:39.307Z,100286.80
2022-12-15T11:10:51.885Z,100284.52
2022-12-15T11:13:22.558Z,100276.56
2022-12-15T11:15:56.542Z,100272.66
2022-12-15T11:18:24.578Z,100277.97
2022-12-15T11:21:01.096Z,100282.04
2022-12-15T11:23:59.494Z,100285.02
2022-12-15T11:26:53.555Z,100289.86
2022-12-15T11:29:23.474Z,100290.84
2022-12-15T11:31:53.115Z,100296.88
2022-12-15T11:34:24.834Z,100302.09
2022-12-15T11:37:34.501Z,100305.67
2022-12-15T11:40:17.597Z,100305.11
2022-12-15T11:43:03.574Z,100309.40
2022-12-15T11:45:37.709Z,100315.23
2022-12-15T11:48:47.682Z,100318.58
2022-12-15T11:52:06.414Z,100326.32
2022-12-15T11:54:42.158Z,100337.10
2022-12-15T11:57:45.274Z,100333.98
2022-12-15T12:00:19.708Z,100335.72
2022-12-15T12:03:24.924Z,100336.26
2022-12-15T12:06:00.429Z,100337.12
2022-12-15T12:09:00.706Z,100336.09
2022-12-15T12:11:50.694Z,100337.63
2022-12-15T12:14:43.598Z,100341.33
2022-12-15T12:17:21.255Z,100348.45
2022-12-15T12:19:54.788Z,100346.92
2022-12-15T12:22:34.317Z,100348.52
2022-12-15T12:25:41.886Z,100349.21
2022-12-15T12:28:40.353Z,100343.70
2022-12-15T12:31:22.523Z,100341.45
2022-12-15T12:33:55.768Z,100344.10
2022-12-15T12:36:23.716Z,100350.76
2022-12-15T12:38:56.245Z,100352.18
2022-12-15T12:41:42.989Z,100355.05
2022-12-15T12:44:27.523Z,100357.48
2022-12-15T12:46:56.822Z,100360.96
2022-12-15T12:49:42.536Z,100357.73
2022-12-15T12:52:26.766Z,100357.44
2022-12-15T12:55:37.048Z,100360.64
2022-12-15T12:58:30.719Z,100364.20
2022-12-15T13:01:10.779Z,100362.56
2022-12-15T13:03:40.253Z,100362.98
2022-12-15T13:06:42.915Z,100359.10
2022-12-15T13:09:16.953Z,100356.25
2022-12-15T13:12:00.807Z,100353.98
2022-12-15T13:14:44.794Z,100352.48
2022-12-15T13:17:28.182Z,100364.10
2022-12-15T13:19:56.509Z,100362.13
2022-12-15T13:22:32.296Z,100364.30
2022-12-15T13:25:00.690Z,100366.27
2022-12-15T13:27:36.602Z,100372.27
2022-12-15T13:30:07.282Z,100373.31
2022-12-15T13:32:37.930Z,100377.27
2022-12-15T13:35:15.129Z,100376.05
2022-12-15T13:37:50.659Z,100374.16
2022-12-15T13:40:33.894Z,100373.31
2022-12-15T13:43:04.968Z,100374.33
2022-12-15T13:45:56.850Z,100375.70
2022-12-15T13:48:41.621Z,100379.43
2022-12-15T13:51:21.287Z,100375.33
2022-12-15T13:54:00.486Z,100380.96
2022-12-15T13:56:46.035Z,100388.58
2022-12-15T13:59:24.731Z,100391.13
2022-12-15T14:01:53.734Z,100388.05
2022-12-15T14:04:22.756Z,100387.58
2022-12-15T14:06:54.608Z,100384.91
2022-12-15T14:09:28.488Z,100384.45
2022-12-15T14:11:57.905Z,100386.10
2022-12-15T14:14:33.197Z,100388.06
2022-12-15T14:17:04.090Z,100385.62
2022-12-15T14:19:42.118Z,100387.72
2022-12-15T14:22:28.133Z,100387.67
2022-12-15T14:25:13.572Z,100387.39
2022-12-15T14:27:41.953Z,100392.36
2022-12-15T14:30:16.112Z,100392.05
2022-12-15T14:32:45.995Z,100395.80
2022-12-15T14:35:22.808Z,100397.10
2022-12-15T14:37:51.114Z,100397.09
2022-12-15T14:40:24.978Z,100398.20
2022-12-15T14:42:56.828Z,100396.56
2022-12-15T14:45:27.478Z,100400.48
2022-12-15T14:48:38.879Z,100407.61
2022-12-15T14:50:49.325Z,100418.46
2022-12-15T14:53:21.270Z,100422.18
2022-12-15T14:55:49.780Z,100418.23
2022-12-15T14:58:39.250Z,100421.63
2022-12-15T15:01:28.998Z,100420.42
2022-12-15T15:04:00.079Z,100419.09
2022-12-15T15:06:33.232Z,100420.86
2022-12-15T15:09:42.397Z,100419.92
2022-12-15T15:12:19.872Z,100425.27
2022-12-15T15:15:01.294Z,100421.36
2022-12-15T15:17:37.685Z,100420.35
2022-12-15T15:20:27.038Z,100425.31
2022-12-15T15:23:17.190Z,100434.42
2022-12-15T15:25:54.516Z,100441.53
2022-12-15T15:28:35.907Z,100445.05
2022-12-15T15:31:41.263Z,100451.94
2022-12-15T15:34:09.945Z,100457.23
2022-12-15T15:36:39.244Z,100460.25
2022-12-15T15:39:15.296Z,100461.33
2022-12-15T15:41:43.378Z,100462.40
2022-12-15T15:44:15.683Z,100465.73
2022-12-15T15:46:50.321Z,100469.02
2022-12-15T15:49:20.717Z,100473.11
2022-12-15T15:51:49.091Z,100479.20
2022-12-15T15:54:22.335Z,100480.22
2022-12-15T15:56:50.373Z,100475.30
2022-12-15T15:59:25.035Z,100477.79
2022-12-15T16:01:57.873Z,100482.19
2022-12-15T16:04:26.385Z,100478.20
2022-12-15T16:06:54.693Z,100477.83
2022-12-15T16:09:24.812Z,100483.71
2022-12-15T16:11:53.369Z,100492.26
2022-12-15T16:14:21.361Z,100497.32
2022-12-15T16:16:49.320Z,100492.19
2022-12-15T16:19:17.302Z,100487.67
2022-12-15T16:21:45.444Z,100485.30
2022-12-15T16:24:17.732Z,100487.62
2022-12-15T16:26:50.087Z,100487.58
2022-12-15T16:29:20.824Z,100488.39
2022-12-15T16:31:49.026Z,100489.59
2022-12-15T16:34:17.679Z,100492.61
2022-12-15T16:36:46.209Z,100496.10
2022-12-15T16:39:31.187Z,100488.95
2022-12-15T16:41:59.744Z,100485.17
2022-12-15T16:44:29.420Z,100482.64
2022-12-15T16:46:57.759Z,100481.64
2022-12-15T16:49:27.664Z,100474.57
2022-12-15T16:51:55.714Z,100472.65
2022-12-15T16:54:27.301Z,100475.17
2022-12-15T16:56:57.389Z,100482.46
2022-12-15T16:59:35.010Z,100479.95
2022-12-15T17:02:28.240Z,100484.70
2022-12-15T17:04:56.479Z,100487.95
2022-12-15T17:07:27.649Z,100489.14
2022-12-15T17:09:56.080Z,100491.90
2022-12-15T17:12:24.020Z,100495.95
2022-12-15T17:14:51.942Z,100496.73
2022-12-15T17:17:20.013Z,100502.92
2022-12-15T17:20:19.821Z,100494.50
2022-12-15T17:22:37.947Z,100499.04
2022-12-15T17:25:06.284Z,100499.63
2022-12-15T17:27:34.192Z,100494.79
2022-12-15T17:30:02.907Z,100498.20
2022-12-15T17:32:30.854Z,100500.05
2022-12-15T17:34:58.795Z,100506.38
2022-12-15T17:37:30.547Z,100511.15
2022-12-15T17:40:04.730Z,100514.77
2022-12-15T17:42:32.839Z,100515.96
2022-12-15T17:45:00.920Z,100519.58
2022-12-15T17:47:30.585Z,100525.10
2022-12-15T17:49:58.605Z,100523.80
2022-12-15T17:52:34.567Z,100527.02
2022-12-15T17:55:04.488Z,100529.89
2022-12-15T17:57:32.451Z,100524.48
2022-12-15T18:00:02.129Z,100519.79
2022-12-15T18:02:33.425Z,100524.27
2022-12-15T18:05:01.570Z,100522.35
2022-12-15T18:07:29.459Z,100521.64
2022-12-15T18:09:57.342Z,100522.16
2022-12-15T18:12:26.981Z,100522.93
2022-12-15T18:14:56.072Z,100524.70
2022-12-15T18:17:24.174Z,100531.94
2022-12-15T18:19:52.091Z,100541.05
2022-12-15T18:22:23.836Z,100546.29
2022-12-15T18:24:53.590Z,100552.20
2022-12-15T18:27:28.017Z,100546.95
2022-12-15T18:29:56.672Z,100543.42
2022-12-15T18:32:27.307Z,100537.23
2022-12-15T18:34:55.743Z,100532.83
2022-12-15T18:37:25.222Z,100535.04
2022-12-15T18:39:56.253Z,100543.24
2022-12-15T18:42:28.985Z,100545.40
2022-12-15T18:45:00.309Z,100549.10
2022-12-15T18:47:28.389Z,100556.93
2022-12-15T18:49:56.276Z,100563.45
2022-12-15T18:52:27.519Z,100563.59
2022-12-15T18:54:56.764Z,100565.16
2022-12-15T18:57:36.402Z,100567.28
2022-12-15T19:00:10.151Z,100563.79
2022-12-15T19:02:38.409Z,100566.52
2022-12-15T19:05:07.174Z,100562.73
2022-12-15T19:07:35.961Z,100559.77
2022-12-15T19:10:04.246Z,100557.68
2022-12-15T19:12:32.206Z,100554.83
2022-12-15T19:15:00.915Z,100555.85
2022-12-15T19:17:47.189Z,100554.45
2022-12-15T19:20:38.657Z,100549.61
2022-12-15T19:23:07.170Z,100547.71
2022-12-15T19:25:35.629Z,100548.48
2022-12-15T19:28:04.227Z,100557.96
2022-12-15T19:30:38.569Z,100559.52
2022-12-15T19:33:11.428Z,100563.46
2022-12-15T19:35:41.633Z,100565.30
2022-12-15T19:38:19.572Z,100561.74
2022-12-15T19:40:48.501Z,100563.16
2022-12-15T19:43:17.396Z,100567.81
2022-12-15T19:45:45.954Z,100566.64
2022-12-15T19:48:16.531Z,100566.73
2022-12-15T19:50:48.422Z,100563.99
2022-12-15T19:53:24.247Z,100567.66
2022-12-15T19:56:01.488Z,100573.46
2022-12-15T19:58:32.212Z,100578.25
2022-12-15T20:01:10.258Z,100576.98
2022-12-15T20:03:39.219Z,100574.33
2022-12-15T20:06:27.852Z,100575.59
2022-12-15T20:08:56.443Z,100573.29
2022-12-15T20:11:30.453Z,100578.45
2022-12-15T20:13:58.803Z,100577.87
2022-12-15T20:16:26.690Z,100576.52
2022-12-15T20:18:55.470Z,100579.81
2022-12-15T20:21:31.471Z,100579.81
2022-12-15T20:24:08.985Z,100567.64
2022-12-15T20:26:39.277Z,100568.48
2022-12-15T20:29:21.583Z,100570.61
2022-12-15T20:31:49.715Z,100572.25
2022-12-15T20:34:17.792Z,100573.22
2022-12-15T20:36:47.478Z,100576.24
2022-12-15T20:39:22.680Z,100569.65
2022-12-15T20:41:50.582Z,100575.39
2022-12-15T20:44:18.804Z,100575.36
2022-12-15T20:46:48.147Z,100581.38
2022-12-15T20:49:21.192Z,100586.39
2022-12-15T20:51:49.406Z,100594.14
2022-12-15T20:54:20.762Z,100597.83
2022-12-15T20:56:49.640Z,100600.38
2022-12-15T20:59:18.017Z,100601.98
2022-12-15T21:01:46.913Z,100603.25
2022-12-15T21:04:25.442Z,100604.95
2022-12-15T21:06:55.234Z,100597.38
2022-12-15T21:09:24.381Z,100594.93
2022-12-15T21:11:54.536Z,100600.97
2022-12-15T21:14:24.047Z,100602.17
2022-12-15T21:16:52.353Z,100611.20
2022-12-15T21:19:22.004Z,100601.14
2022-12-15T21:21:55.196Z,100592.00
2022-12-15T21:24:28.858Z,100590.73
2022-12-15T21:26:57.007Z,100588.83
2022-12-15T21:29:28.152Z,100584.64
2022-12-15T21:31:56.256Z,100582.45
2022-12-15T21:34:24.285Z,100578.04
2022-12-15T21:36:55.157Z,100567.02
2022-12-15T21:39:30.173Z,100559.60
2022-12-15T21:42:00.235Z,100557.90
2022-12-15T21:44:28.265Z,100551.09
2022-12-15T21:46:56.254Z,100548.09
2022-12-15T21:49:25.523Z,100545.47
2022-12-15T21:51:55.391Z,100554.50
2022-12-15T21:54:32.449Z,100554.88
2022-12-15T21:57:01.041Z,100556.35
2022-12-15T21:59:31.228Z,100558.88
2022-12-15T22:02:22.742Z,100562.67
2022-12-15T22:04:51.946Z,100559.92
2022-12-15T22:07:19.866Z,100564.42
2022-12-15T22:09:47.836Z,100559.87
2022-12-15T22:12:21.184Z,100553.27
2022-12-15T22:14:49.515Z,100542.48
2022-12-15T22:17:21.615Z,100541.65
2022-12-15T22:19:49.570Z,100544.73
2022-12-15T22:22:17.514Z,100543.30
2022-12-15T22:24:45.534Z,100546.45
2022-12-15T22:27:22.218Z,100559.77
2022-12-15T22:29:50.524Z,100561.58
2022-12-15T22:32:18.553Z,100560.48
2022-12-15T22:34:46.424Z,100563.64
2022-12-15T22:37:14.313Z,100567.55
2022-12-15T22:39:42.231Z,100571.63
2022-12-15T22:42:16.761Z,100575.50
2022-12-15T22:44:45.541Z,100581.95
2022-12-15T22:47:13.626Z,100581.69
2022-12-15T22:49:42.099Z,100585.86
2022-12-15T22:52:17.462Z,100590.17
2022-12-15T22:54:46.289Z,100585.11
2022-12-15T22:57:23.247Z,100581.09
2022-12-15T23:00:00.855Z,100575.23
2022-12-15T23:02:32.567Z,100576.13
2022-12-15T23:05:01.480Z,100577.61
2022-12-15T23:07:29.418Z,100576.48
2022-12-15T23:10:15.793Z,100578.13
2022-12-15T23:12:43.707Z,100566.57
2022-12-15T23:15:29.886Z,100561.54
2022-12-15T23:17:57.762Z,100563.27
2022-12-15T23:20:25.631Z,100563.70
2022-12-15T23:22:53.510Z,100566.29
2022-12-15T23:25:22.789Z,100562.75
2022-12-15T23:27:50.719Z,100560.37
2022-12-15T23:30:18.604Z,100557.89
2022-12-15T23:32:46.532Z,100564.59
2022-12-15T23:35:14.732Z,100565.70
2022-12-15T23:37:42.603Z,100569.95
2022-12-15T23:40:11.149Z,100569.41
2022-12-15T23:42:39.079Z,100571.61
2022-12-15T23:45:07.581Z,100571.55
2022-12-15T23:47:36.317Z,100570.53
2022-12-15T23:50:04.710Z,100569.25
2022-12-15T23:52:33.220Z,100568.64
2022-12-15T23:55:01.146Z,100570.66
2022-12-15T23:57:29.276Z,100575.38
2022-12-15T23:59:57.204Z,100582.81
